Time;durP1;ratioP1;P1;durP2;ratioP2;P2;SDS_P1;SDS_P2;PMS_P1;PMS_P2;Temp;Humidity;BMP_temperature;BMP_pressure;BME280_temperature;BME280_humidity;BME280_pressure;Samples;Min_cycle;Max_cycle;Signal;HPM_P1;HPM_P2
2022/08/04 00:00:39;;;;;;;1.33;1.10;;;33.50;41.50;;;;;;21040351;28;20505;-75
2022/08/04 00:10:39;;;;;;;1.63;0.90;;;33.50;41.50;;;;;;21048335;28;20406;-75
2022/08/04 00:20:41;;;;;;;1.33;1.10;;;33.50;41.50;;;;;;20986238;28;20124;-75
2022/08/04 00:30:41;;;;;;;1.67;1.10;;;33.50;41.50;;;;;;20985578;28;20225;-74
2022/08/04 00:41:17;;;;;;;1.35;1.17;;;33.40;41.40;;;;;;20986219;28;20040;-74
2022/08/04 00:51:30;;;;;;;1.20;0.95;;;33.50;41.50;;;;;;21000949;28;20040;-76
2022/08/04 01:01:59;;;;;;;1.48;1.00;;;33.40;41.50;;;;;;20999522;28;20127;-74
2022/08/04 01:12:06;;;;;;;1.77;1.33;;;33.40;41.40;;;;;;21256267;23;20048;-75
2022/08/04 01:22:22;;;;;;;1.33;1.20;;;33.40;41.50;;;;;;20882352;28;20045;-74
2022/08/04 01:32:48;;;;;;;1.65;1.15;;;33.40;41.60;;;;;;20912946;28;20399;-74
2022/08/04 01:42:51;;;;;;;1.80;1.30;;;33.30;41.50;;;;;;20895605;28;20037;-74
2022/08/04 01:52:53;;;;;;;1.08;0.98;;;33.30;41.60;;;;;;20895369;28;20187;-74
2022/08/04 02:02:54;;;;;;;1.30;1.10;;;33.30;41.60;;;;;;20894212;28;20048;-75
2022/08/04 02:13:08;;;;;;;1.40;1.20;;;33.20;41.60;;;;;;20893107;28;20076;-76
2022/08/04 02:23:12;;;;;;;1.30;1.20;;;33.20;41.60;;;;;;20913104;28;20040;-74
2022/08/04 02:33:17;;;;;;;2.42;1.52;;;33.20;41.60;;;;;;20891909;28;20029;-75
2022/08/04 02:43:18;;;;;;;1.52;1.20;;;33.20;41.70;;;;;;20875596;28;20039;-73
2022/08/04 02:53:21;;;;;;;1.50;1.38;;;33.10;41.70;;;;;;20858507;28;20037;-74
2022/08/04 03:03:25;;;;;;;1.60;1.40;;;33.20;41.70;;;;;;20889818;28;20040;-74
2022/08/04 03:13:35;;;;;;;2.58;1.52;;;33.10;41.70;;;;;;20889497;28;20036;-75
2022/08/04 03:23:52;;;;;;;1.58;1.40;;;33.10;41.70;;;;;;20889471;28;20059;-74
2022/08/04 03:34:02;;;;;;;2.17;1.65;;;33.10;41.80;;;;;;20873865;28;20123;-74
2022/08/04 03:44:37;;;;;;;1.50;1.40;;;33.00;41.70;;;;;;20904526;28;20028;-75
2022/08/04 03:54:57;;;;;;;1.80;1.45;;;33.00;41.70;;;;;;20921426;28;20033;-76
2022/08/04 04:05:22;;;;;;;1.50;1.30;;;33.00;41.70;;;;;;20919179;28;20083;-75
2022/08/04 04:15:54;;;;;;;1.67;1.58;;;33.00;41.80;;;;;;20969736;28;20044;-74
2022/08/04 04:26:12;;;;;;;1.42;1.33;;;33.00;41.80;;;;;;20986567;28;20492;-75
2022/08/04 04:36:33;;;;;;;1.60;1.38;;;33.00;41.80;;;;;;20967588;28;20098;-74
2022/08/04 04:46:44;;;;;;;1.45;1.35;;;33.00;41.80;;;;;;20949005;28;20431;-74
2022/08/04 04:57:10;;;;;;;2.40;1.60;;;33.00;41.80;;;;;;20964462;28;20032;-77
2022/08/04 05:07:23;;;;;;;1.70;1.60;;;33.00;41.90;;;;;;20996846;28;20047;-73
2022/08/04 05:17:35;;;;;;;2.40;2.10;;;32.90;41.80;;;;;;20997318;28;20032;-73
2022/08/04 05:27:43;;;;;;;3.10;1.98;;;32.70;41.80;;;;;;20946847;28;20036;-77
2022/08/04 05:37:43;;;;;;;2.75;2.20;;;32.60;42.00;;;;;;20962329;28;20036;-74
2022/08/04 05:47:44;;;;;;;2.53;1.83;;;32.30;42.40;;;;;;20938884;28;20033;-74
2022/08/04 05:57:47;;;;;;;2.65;2.30;;;32.10;42.80;;;;;;20875254;28;20394;-77
2022/08/04 06:07:47;;;;;;;1.83;1.60;;;32.00;43.10;;;;;;20897254;28;20059;-73
2022/08/04 06:17:50;;;;;;;3.27;2.30;;;32.00;43.20;;;;;;20968900;28;20282;-71
2022/08/04 06:27:51;;;;;;;2.20;1.77;;;32.10;43.20;;;;;;20989607;28;20293;-70
2022/08/04 06:37:52;;;;;;;2.35;2.03;;;32.10;43.10;;;;;;20894175;28;20037;-73
2022/08/04 06:47:53;;;;;;;2.20;2.00;;;32.20;43.10;;;;;;20871813;28;20047;-76
2022/08/04 06:57:53;;;;;;;1.90;1.50;;;32.20;43.10;;;;;;20855932;28;20120;-79
2022/08/04 07:07:54;;;;;;;1.85;1.75;;;32.20;43.10;;;;;;20933980;28;20037;-73
2022/08/04 07:17:58;;;;;;;2.83;2.17;;;32.20;43.20;;;;;;20976460;28;20131;-76
2022/08/04 07:27:59;;;;;;;2.10;1.77;;;32.10;43.40;;;;;;20961136;28;20059;-76
2022/08/04 07:37:59;;;;;;;2.03;1.83;;;32.10;43.30;;;;;;20938688;28;20028;-76
2022/08/04 07:48:05;;;;;;;2.40;1.60;;;32.00;43.40;;;;;;20970866;28;20075;-75
2022/08/04 07:58:06;;;;;;;2.42;1.65;;;32.00;43.40;;;;;;20975585;28;20089;-75
2022/08/04 08:08:06;;;;;;;1.57;1.47;;;32.00;43.30;;;;;;20990471;28;20064;-73
2022/08/04 08:18:07;;;;;;;2.45;1.40;;;32.10;43.20;;;;;;20937686;28;20287;-76
2022/08/04 08:28:08;;;;;;;1.90;1.60;;;32.00;43.20;;;;;;20964138;28;20068;-76
2022/08/04 08:38:08;;;;;;;1.30;1.20;;;32.00;43.20;;;;;;20966030;28;20595;-75
2022/08/04 08:48:32;;;;;;;4.65;1.92;;;32.00;43.30;;;;;;20988205;28;20039;-77
2022/08/04 08:58:43;;;;;;;1.95;1.45;;;31.90;43.20;;;;;;20982104;28;20114;-77
2022/08/04 09:08:59;;;;;;;1.85;1.13;;;31.80;44.00;;;;;;20980751;28;20041;-76
2022/08/04 09:19:23;;;;;;;2.13;1.75;;;31.80;43.40;;;;;;20997843;28;20074;-73
2022/08/04 09:29:51;;;;;;;2.63;1.33;;;31.80;43.60;;;;;;20905274;28;20036;-73
2022/08/04 09:40:49;;;;;;;2.60;1.35;;;31.80;43.50;;;;;;20907136;28;20283;-75
2022/08/04 09:50:57;;;;;;;2.10;1.45;;;31.90;42.50;;;;;;20788386;28;20064;-76
2022/08/04 10:01:09;;;;;;;2.80;1.33;;;31.90;42.50;;;;;;20928366;28;20083;-78
2022/08/04 10:11:22;;;;;;;2.45;1.40;;;32.10;42.40;;;;;;20861329;28;20067;-75
2022/08/04 10:21:49;;;;;;;5.95;1.17;;;32.20;42.30;;;;;;20863474;28;20107;-77
2022/08/04 10:32:25;;;;;;;1.75;1.27;;;32.30;42.80;;;;;;20893723;28;20364;-75
2022/08/04 10:42:26;;;;;;;2.10;1.48;;;32.40;41.90;;;;;;20874156;28;20044;-75
2022/08/04 10:52:32;;;;;;;3.55;1.38;;;32.60;41.80;;;;;;20874177;28;20737;-75
2022/08/04 11:02:59;;;;;;;2.50;1.10;;;32.70;41.60;;;;;;20876240;28;20529;-76
2022/08/04 11:13:02;;;;;;;2.03;1.15;;;32.80;41.50;;;;;;20894368;28;20103;-73
2022/08/04 11:23:04;;;;;;;;;;;32.80;41.30;;;;;;20890757;28;20073;-76
2022/08/04 11:33:28;;;;;;;2.45;1.30;;;32.90;41.30;;;;;;20889411;28;20313;-74
2022/08/04 11:43:55;;;;;;;1.95;1.02;;;33.00;41.20;;;;;;20954446;28;20044;-72
2022/08/04 11:53:55;;;;;;;2.20;0.85;;;33.00;41.10;;;;;;20943037;28;20041;-76
2022/08/04 12:04:22;;;;;;;2.17;1.08;;;33.00;41.10;;;;;;20925454;28;20033;-75
2022/08/04 12:14:48;;;;;;;1.92;1.10;;;33.00;41.10;;;;;;20982525;28;20037;-77
2022/08/04 12:25:02;;;;;;;1.63;1.00;;;33.10;41.00;;;;;;20988036;28;20459;-78
2022/08/04 12:35:20;;;;;;;1.70;0.98;;;33.00;41.00;;;;;;20968883;28;20032;-78
2022/08/04 12:45:21;;;;;;;2.08;1.15;;;33.00;41.20;;;;;;20929544;28;20036;-77
2022/08/04 12:55:26;;;;;;;2.03;0.77;;;33.00;41.30;;;;;;20909828;28;20464;-78
2022/08/04 13:05:27;;;;;;;2.00;0.85;;;33.00;41.20;;;;;;20930497;28;20092;-77
2022/08/04 13:15:29;;;;;;;1.52;1.17;;;33.10;41.10;;;;;;20936751;28;20151;-77
2022/08/04 13:25:30;;;;;;;3.67;1.23;;;33.20;41.00;;;;;;20947585;28;20437;-78
2022/08/04 13:35:31;;;;;;;2.57;0.90;;;33.40;40.70;;;;;;20964941;28;20035;-79
2022/08/04 13:45:32;;;;;;;1.30;1.02;;;33.40;40.60;;;;;;20904689;28;20334;-78
2022/08/04 13:55:34;;;;;;;2.25;1.02;;;33.50;40.50;;;;;;20892574;28;20376;-77
2022/08/04 14:05:34;;;;;;;1.42;1.13;;;33.50;40.60;;;;;;20883609;28;20472;-79
2022/08/04 14:15:35;;;;;;;1.05;0.63;;;33.40;40.70;;;;;;20895449;28;20089;-79
2022/08/04 14:25:35;;;;;;;0.98;0.70;;;33.50;40.80;;;;;;20967008;28;20536;-79
2022/08/04 14:35:37;;;;;;;2.30;0.95;;;33.40;40.80;;;;;;20988798;28;20520;-80
2022/08/04 14:45:41;;;;;;;1.87;0.47;;;33.40;40.90;;;;;;20969841;28;20036;-83
2022/08/04 14:55:44;;;;;;;1.20;0.70;;;33.30;41.00;;;;;;20980955;28;20068;-77
2022/08/04 15:05:44;;;;;;;1.30;0.80;;;33.30;41.10;;;;;;20945872;28;20623;-76
2022/08/04 15:15:45;;;;;;;1.73;1.00;;;33.30;41.30;;;;;;20939453;28;20044;-77
2022/08/04 15:25:48;;;;;;;1.85;0.80;;;33.30;41.50;;;;;;20938581;28;20290;-76
2022/08/04 15:36:12;;;;;;;1.98;0.98;;;33.10;41.70;;;;;;20937698;28;20083;-79
2022/08/04 15:46:13;;;;;;;3.00;0.90;;;33.00;41.80;;;;;;21006082;28;20055;-82
2022/08/04 15:56:46;;;;;;;1.60;1.13;;;33.00;42.00;;;;;;20972403;28;20115;-78
2022/08/04 16:06:47;;;;;;;0.93;0.52;;;33.00;42.20;;;;;;20968335;28;20359;-80
2022/08/04 16:16:48;;;;;;;0.95;0.85;;;32.90;42.40;;;;;;20975970;28;20103;-77
2022/08/04 16:26:50;;;;;;;2.35;0.70;;;32.80;42.60;;;;;;20965574;28;20036;-72
2022/08/04 16:36:54;;;;;;;3.03;0.90;;;32.70;42.70;;;;;;20904707;28;20421;-72
2022/08/04 16:46:58;;;;;;;3.40;0.80;;;32.70;42.80;;;;;;20938933;28;20037;-71
2022/08/04 16:56:58;;;;;;;1.50;0.68;;;32.70;43.10;;;;;;20965431;28;20051;-73
2022/08/04 17:07:04;;;;;;;1.33;0.82;;;32.60;43.20;;;;;;20953005;28;20613;-74
2022/08/04 17:17:04;;;;;;;1.23;0.68;;;32.50;43.40;;;;;;20864760;28;20395;-73
2022/08/04 17:27:05;;;;;;;2.33;0.90;;;32.50;43.60;;;;;;20916450;28;20039;-72
2022/08/04 17:37:07;;;;;;;2.17;0.60;;;32.50;43.70;;;;;;20992552;28;20063;-83
2022/08/04 17:47:20;;;;;;;2.38;0.80;;;32.50;43.80;;;;;;20927307;28;20372;-75
2022/08/04 17:57:21;;;;;;;;;;;32.50;43.90;;;;;;20942012;28;20475;-73
2022/08/04 18:07:23;;;;;;;2.85;1.10;;;32.40;43.80;;;;;;20957924;28;20416;-75
2022/08/04 18:17:45;;;;;;;2.95;1.48;;;32.40;44.00;;;;;;20941155;28;20082;-75
2022/08/04 18:27:46;;;;;;;1.33;1.00;;;32.50;44.30;;;;;;20961365;28;20074;-76
2022/08/04 18:37:49;;;;;;;1.75;1.00;;;32.40;44.40;;;;;;20973595;28;20037;-76
2022/08/04 18:47:50;;;;;;;1.83;1.00;;;32.30;44.40;;;;;;20956626;28;20118;-76
2022/08/04 18:57:51;;;;;;;2.03;1.00;;;32.30;44.50;;;;;;20970146;28;20048;-76
2022/08/04 19:07:52;;;;;;;5.07;1.50;;;32.30;44.60;;;;;;20986921;28;20037;-76
2022/08/04 19:17:52;;;;;;;1.17;0.95;;;32.20;44.50;;;;;;20970258;28;20098;-77
2022/08/04 19:27:53;;;;;;;2.58;1.05;;;32.20;44.70;;;;;;20969961;28;20044;-77
2022/08/04 19:37:54;;;;;;;1.60;0.83;;;32.20;44.80;;;;;;20969643;28;20490;-77
2022/08/04 19:47:54;;;;;;;1.35;0.95;;;32.20;44.90;;;;;;20953376;28;20058;-77
2022/08/04 19:57:55;;;;;;;1.10;0.83;;;32.20;45.00;;;;;;20936128;28;20576;-77
2022/08/04 20:07:56;;;;;;;1.42;0.95;;;32.10;45.00;;;;;;20935642;28;20294;-77
2022/08/04 20:17:56;;;;;;;1.52;0.80;;;32.10;45.10;;;;;;20936987;28;20070;-77
2022/08/04 20:27:57;;;;;;;2.55;1.20;;;32.10;45.20;;;;;;20950216;28;20036;-77
2022/08/04 20:37:57;;;;;;;0.70;0.70;;;32.10;45.90;;;;;;20982311;28;20115;-78
2022/08/04 20:47:58;;;;;;;2.20;0.75;;;32.10;45.30;;;;;;20997234;28;20029;-77
2022/08/04 20:57:59;;;;;;;2.30;0.80;;;32.10;45.40;;;;;;20948634;28;20483;-77
2022/08/04 21:07:59;;;;;;;1.80;0.95;;;32.00;45.40;;;;;;20979571;28;20531;-77
2022/08/04 21:18:00;;;;;;;1.92;0.85;;;32.00;45.50;;;;;;20961996;28;20542;-78
2022/08/04 21:28:00;;;;;;;0.85;0.75;;;32.00;45.60;;;;;;20961075;28;20187;-77
2022/08/04 21:38:01;;;;;;;2.77;0.90;;;31.90;45.60;;;;;;20960239;28;20037;-77
2022/08/04 21:48:02;;;;;;;1.20;0.80;;;31.90;45.60;;;;;;20959498;28;20287;-77
2022/08/04 21:58:02;;;;;;;2.10;1.10;;;31.90;45.70;;;;;;20958793;28;20123;-76
2022/08/04 22:08:03;;;;;;;1.38;1.00;;;31.90;45.70;;;;;;20974317;28;20306;-76
2022/08/04 22:18:03;;;;;;;2.25;1.10;;;31.90;45.70;;;;;;20940990;28;20140;-76
2022/08/04 22:28:06;;;;;;;1.40;0.90;;;31.90;45.80;;;;;;20973897;28;20040;-76
2022/08/04 22:38:07;;;;;;;1.45;0.80;;;31.90;45.80;;;;;;20956386;28;20028;-76
2022/08/04 22:48:07;;;;;;;1.23;0.90;;;31.90;45.90;;;;;;20954227;28;20051;-76
2022/08/04 22:58:08;;;;;;;1.48;0.88;;;31.80;45.90;;;;;;20970786;28;20626;-76
2022/08/04 23:08:08;;;;;;;1.17;0.88;;;31.80;46.00;;;;;;20970105;28;20052;-75
2022/08/04 23:18:09;;;;;;;2.80;0.70;;;31.80;46.10;;;;;;20970763;28;20062;-76
2022/08/04 23:28:10;;;;;;;1.27;0.90;;;31.80;46.20;;;;;;20969623;28;20377;-76
2022/08/04 23:38:10;;;;;;;2.40;1.08;;;31.70;46.20;;;;;;20953762;28;20115;-76
2022/08/04 23:48:11;;;;;;;1.65;0.90;;;31.70;46.30;;;;;;20969062;28;20421;-76
2022/08/04 23:58:11;;;;;;;1.55;0.73;;;31.70;46.40;;;;;;20997435;28;20479;-76
